sensor_id;sensor_type;location;lat;lon;timestamp;P1;durP1;ratioP1;P2;durP2;ratioP2
17365;SDS011;8800;50.118;9.900;2023-07-13T00:00:36;2.35;;;1.23;;
17365;SDS011;8800;50.118;9.900;2023-07-13T00:03:05;4.20;;;1.13;;
17365;SDS011;8800;50.118;9.900;2023-07-13T00:05:33;3.40;;;1.20;;
17365;SDS011;8800;50.118;9.900;2023-07-13T00:08:00;2.25;;;1.10;;
17365;SDS011;8800;50.118;9.900;2023-07-13T00:10:26;2.60;;;1.30;;
17365;SDS011;8800;50.118;9.900;2023-07-13T00:12:53;3.22;;;1.05;;
17365;SDS011;8800;50.118;9.900;2023-07-13T00:15:21;1.52;;;1.17;;
17365;SDS011;8800;50.118;9.900;2023-07-13T00:17:48;2.53;;;1.13;;
17365;SDS011;8800;50.118;9.900;2023-07-13T00:20:15;2.95;;;1.30;;
17365;SDS011;8800;50.118;9.900;2023-07-13T00:22:43;3.63;;;1.10;;
17365;SDS011;8800;50.118;9.900;2023-07-13T00:25:10;2.25;;;1.08;;
17365;SDS011;8800;50.118;9.900;2023-07-13T00:27:37;1.17;;;0.80;;
17365;SDS011;8800;50.118;9.900;2023-07-13T00:30:04;1.67;;;1.00;;
17365;SDS011;8800;50.118;9.900;2023-07-13T00:32:31;6.75;;;1.20;;
17365;SDS011;8800;50.118;9.900;2023-07-13T00:34:58;1.92;;;1.02;;
17365;SDS011;8800;50.118;9.900;2023-07-13T00:37:25;3.25;;;1.20;;
17365;SDS011;8800;50.118;9.900;2023-07-13T00:39:53;4.72;;;1.13;;
17365;SDS011;8800;50.118;9.900;2023-07-13T00:42:20;2.83;;;1.23;;
17365;SDS011;8800;50.118;9.900;2023-07-13T00:45:02;2.20;;;1.00;;
17365;SDS011;8800;50.118;9.900;2023-07-13T00:47:29;1.17;;;0.90;;
17365;SDS011;8800;50.118;9.900;2023-07-13T00:49:56;2.17;;;0.90;;
17365;SDS011;8800;50.118;9.900;2023-07-13T00:52:22;1.67;;;1.00;;
17365;SDS011;8800;50.118;9.900;2023-07-13T00:54:49;2.85;;;1.13;;
17365;SDS011;8800;50.118;9.900;2023-07-13T00:57:18;3.80;;;1.27;;
17365;SDS011;8800;50.118;9.900;2023-07-13T00:59:45;3.70;;;1.38;;
17365;SDS011;8800;50.118;9.900;2023-07-13T01:02:12;3.55;;;1.38;;
17365;SDS011;8800;50.118;9.900;2023-07-13T01:04:39;1.10;;;0.90;;
17365;SDS011;8800;50.118;9.900;2023-07-13T01:07:09;2.15;;;1.02;;
17365;SDS011;8800;50.118;9.900;2023-07-13T01:09:36;2.45;;;1.00;;
17365;SDS011;8800;50.118;9.900;2023-07-13T01:12:02;1.58;;;0.98;;
17365;SDS011;8800;50.118;9.900;2023-07-13T01:14:30;4.70;;;1.27;;
17365;SDS011;8800;50.118;9.900;2023-07-13T01:16:57;4.82;;;1.25;;
17365;SDS011;8800;50.118;9.900;2023-07-13T01:19:35;1.42;;;1.05;;
17365;SDS011;8800;50.118;9.900;2023-07-13T01:22:04;3.55;;;1.30;;
17365;SDS011;8800;50.118;9.900;2023-07-13T01:24:33;2.70;;;1.13;;
17365;SDS011;8800;50.118;9.900;2023-07-13T01:27:00;3.28;;;1.30;;
17365;SDS011;8800;50.118;9.900;2023-07-13T01:29:27;3.13;;;1.20;;
17365;SDS011;8800;50.118;9.900;2023-07-13T01:31:53;2.70;;;1.20;;
17365;SDS011;8800;50.118;9.900;2023-07-13T01:34:20;2.03;;;1.10;;
17365;SDS011;8800;50.118;9.900;2023-07-13T01:36:46;1.20;;;1.00;;
17365;SDS011;8800;50.118;9.900;2023-07-13T01:39:14;1.88;;;1.20;;
17365;SDS011;8800;50.118;9.900;2023-07-13T01:41:42;2.28;;;1.20;;
17365;SDS011;8800;50.118;9.900;2023-07-13T01:44:08;2.35;;;1.30;;
17365;SDS011;8800;50.118;9.900;2023-07-13T01:46:35;2.92;;;1.20;;
17365;SDS011;8800;50.118;9.900;2023-07-13T01:49:01;2.03;;;1.17;;
17365;SDS011;8800;50.118;9.900;2023-07-13T01:51:28;2.38;;;1.33;;
17365;SDS011;8800;50.118;9.900;2023-07-13T01:53:54;2.33;;;1.17;;
17365;SDS011;8800;50.118;9.900;2023-07-13T01:56:22;3.60;;;1.38;;
17365;SDS011;8800;50.118;9.900;2023-07-13T01:58:49;2.58;;;1.15;;
17365;SDS011;8800;50.118;9.900;2023-07-13T02:01:15;2.55;;;1.20;;
17365;SDS011;8800;50.118;9.900;2023-07-13T02:03:42;4.88;;;1.60;;
17365;SDS011;8800;50.118;9.900;2023-07-13T02:06:08;2.17;;;1.35;;
17365;SDS011;8800;50.118;9.900;2023-07-13T02:08:35;2.92;;;1.20;;
17365;SDS011;8800;50.118;9.900;2023-07-13T02:11:02;1.63;;;1.10;;
17365;SDS011;8800;50.118;9.900;2023-07-13T02:13:30;3.13;;;1.23;;
17365;SDS011;8800;50.118;9.900;2023-07-13T02:15:56;2.35;;;1.15;;
17365;SDS011;8800;50.118;9.900;2023-07-13T02:18:23;2.65;;;1.35;;
17365;SDS011;8800;50.118;9.900;2023-07-13T02:20:49;3.13;;;1.20;;
17365;SDS011;8800;50.118;9.900;2023-07-13T02:23:16;2.42;;;1.20;;
17365;SDS011;8800;50.118;9.900;2023-07-13T02:25:42;3.38;;;1.00;;
17365;SDS011;8800;50.118;9.900;2023-07-13T02:28:09;2.67;;;1.40;;
17365;SDS011;8800;50.118;9.900;2023-07-13T02:30:37;3.47;;;1.30;;
17365;SDS011;8800;50.118;9.900;2023-07-13T02:33:04;3.88;;;1.38;;
17365;SDS011;8800;50.118;9.900;2023-07-13T02:35:31;3.05;;;1.30;;
17365;SDS011;8800;50.118;9.900;2023-07-13T02:37:58;3.20;;;1.10;;
17365;SDS011;8800;50.118;9.900;2023-07-13T02:40:24;2.92;;;1.10;;
17365;SDS011;8800;50.118;9.900;2023-07-13T02:42:51;1.88;;;1.00;;
17365;SDS011;8800;50.118;9.900;2023-07-13T02:45:18;2.03;;;1.00;;
17365;SDS011;8800;50.118;9.900;2023-07-13T02:47:46;2.53;;;1.20;;
17365;SDS011;8800;50.118;9.900;2023-07-13T02:50:12;2.22;;;1.02;;
17365;SDS011;8800;50.118;9.900;2023-07-13T02:52:39;1.80;;;1.25;;
17365;SDS011;8800;50.118;9.900;2023-07-13T02:55:06;3.83;;;1.30;;
17365;SDS011;8800;50.118;9.900;2023-07-13T02:57:33;2.90;;;1.20;;
17365;SDS011;8800;50.118;9.900;2023-07-13T03:00:00;2.58;;;1.20;;
17365;SDS011;8800;50.118;9.900;2023-07-13T03:02:30;3.05;;;1.20;;
17365;SDS011;8800;50.118;9.900;2023-07-13T03:04:58;4.50;;;1.30;;
17365;SDS011;8800;50.118;9.900;2023-07-13T03:07:25;2.38;;;1.30;;
17365;SDS011;8800;50.118;9.900;2023-07-13T03:09:53;2.22;;;1.10;;
17365;SDS011;8800;50.118;9.900;2023-07-13T03:12:20;2.90;;;1.40;;
17365;SDS011;8800;50.118;9.900;2023-07-13T03:14:47;2.10;;;1.30;;
17365;SDS011;8800;50.118;9.900;2023-07-13T03:17:13;3.13;;;1.45;;
17365;SDS011;8800;50.118;9.900;2023-07-13T03:19:40;3.03;;;1.33;;
17365;SDS011;8800;50.118;9.900;2023-07-13T03:22:08;3.28;;;1.33;;
17365;SDS011;8800;50.118;9.900;2023-07-13T03:24:35;4.43;;;1.38;;
17365;SDS011;8800;50.118;9.900;2023-07-13T03:27:03;2.05;;;1.30;;
17365;SDS011;8800;50.118;9.900;2023-07-13T03:29:30;5.43;;;1.42;;
17365;SDS011;8800;50.118;9.900;2023-07-13T03:31:57;3.75;;;1.38;;
17365;SDS011;8800;50.118;9.900;2023-07-13T03:34:24;2.00;;;1.10;;
17365;SDS011;8800;50.118;9.900;2023-07-13T03:36:50;3.92;;;1.40;;
17365;SDS011;8800;50.118;9.900;2023-07-13T03:39:21;3.08;;;1.40;;
17365;SDS011;8800;50.118;9.900;2023-07-13T03:41:48;4.20;;;1.30;;
17365;SDS011;8800;50.118;9.900;2023-07-13T03:44:15;2.88;;;1.30;;
17365;SDS011;8800;50.118;9.900;2023-07-13T03:46:42;3.75;;;1.23;;
17365;SDS011;8800;50.118;9.900;2023-07-13T03:49:08;5.30;;;1.60;;
17365;SDS011;8800;50.118;9.900;2023-07-13T03:51:35;4.53;;;1.13;;
17365;SDS011;8800;50.118;9.900;2023-07-13T03:54:02;4.35;;;1.33;;
17365;SDS011;8800;50.118;9.900;2023-07-13T03:56:30;2.72;;;1.15;;
17365;SDS011;8800;50.118;9.900;2023-07-13T03:58:58;3.95;;;1.20;;
17365;SDS011;8800;50.118;9.900;2023-07-13T04:01:27;3.20;;;1.30;;
17365;SDS011;8800;50.118;9.900;2023-07-13T04:03:54;4.85;;;1.70;;
17365;SDS011;8800;50.118;9.900;2023-07-13T04:06:21;4.22;;;1.30;;
17365;SDS011;8800;50.118;9.900;2023-07-13T04:08:49;4.88;;;1.35;;
17365;SDS011;8800;50.118;9.900;2023-07-13T04:11:16;5.43;;;1.35;;
17365;SDS011;8800;50.118;9.900;2023-07-13T04:13:44;3.92;;;1.50;;
17365;SDS011;8800;50.118;9.900;2023-07-13T04:16:11;2.42;;;1.48;;
17365;SDS011;8800;50.118;9.900;2023-07-13T04:18:38;2.25;;;1.48;;
17365;SDS011;8800;50.118;9.900;2023-07-13T04:21:04;3.65;;;1.60;;
17365;SDS011;8800;50.118;9.900;2023-07-13T04:23:31;4.90;;;1.40;;
17365;SDS011;8800;50.118;9.900;2023-07-13T04:25:57;3.88;;;1.40;;
17365;SDS011;8800;50.118;9.900;2023-07-13T04:28:24;3.42;;;1.30;;
17365;SDS011;8800;50.118;9.900;2023-07-13T04:30:53;5.30;;;1.15;;
17365;SDS011;8800;50.118;9.900;2023-07-13T04:33:20;3.45;;;1.30;;
17365;SDS011;8800;50.118;9.900;2023-07-13T04:35:49;4.63;;;1.30;;
17365;SDS011;8800;50.118;9.900;2023-07-13T04:38:21;4.32;;;1.40;;
17365;SDS011;8800;50.118;9.900;2023-07-13T04:40:50;4.10;;;1.20;;
17365;SDS011;8800;50.118;9.900;2023-07-13T04:43:16;4.07;;;1.30;;
17365;SDS011;8800;50.118;9.900;2023-07-13T04:45:43;3.95;;;1.35;;
17365;SDS011;8800;50.118;9.900;2023-07-13T04:48:11;4.13;;;0.98;;
17365;SDS011;8800;50.118;9.900;2023-07-13T04:50:38;7.45;;;1.40;;
17365;SDS011;8800;50.118;9.900;2023-07-13T04:53:05;4.00;;;1.08;;
17365;SDS011;8800;50.118;9.900;2023-07-13T04:55:31;3.42;;;1.10;;
17365;SDS011;8800;50.118;9.900;2023-07-13T04:57:58;3.75;;;1.23;;
17365;SDS011;8800;50.118;9.900;2023-07-13T05:00:25;4.32;;;1.27;;
17365;SDS011;8800;50.118;9.900;2023-07-13T05:02:53;3.42;;;1.20;;
17365;SDS011;8800;50.118;9.900;2023-07-13T05:05:21;6.22;;;1.23;;
17365;SDS011;8800;50.118;9.900;2023-07-13T05:07:47;3.78;;;1.30;;
17365;SDS011;8800;50.118;9.900;2023-07-13T05:10:14;2.15;;;1.10;;
17365;SDS011;8800;50.118;9.900;2023-07-13T05:12:40;4.68;;;1.60;;
17365;SDS011;8800;50.118;9.900;2023-07-13T05:15:07;3.15;;;1.10;;
17365;SDS011;8800;50.118;9.900;2023-07-13T05:17:34;3.45;;;1.10;;
17365;SDS011;8800;50.118;9.900;2023-07-13T05:20:00;3.47;;;1.20;;
17365;SDS011;8800;50.118;9.900;2023-07-13T05:22:28;5.47;;;1.30;;
17365;SDS011;8800;50.118;9.900;2023-07-13T05:24:55;3.28;;;0.95;;
17365;SDS011;8800;50.118;9.900;2023-07-13T05:27:21;1.58;;;0.85;;
17365;SDS011;8800;50.118;9.900;2023-07-13T05:29:48;1.65;;;0.70;;
17365;SDS011;8800;50.118;9.900;2023-07-13T05:32:14;3.30;;;0.95;;
17365;SDS011;8800;50.118;9.900;2023-07-13T05:34:41;2.30;;;0.82;;
17365;SDS011;8800;50.118;9.900;2023-07-13T05:37:08;5.80;;;1.27;;
17365;SDS011;8800;50.118;9.900;2023-07-13T05:39:36;4.13;;;1.27;;
17365;SDS011;8800;50.118;9.900;2023-07-13T05:42:02;4.03;;;1.23;;
17365;SDS011;8800;50.118;9.900;2023-07-13T05:44:29;2.60;;;1.10;;
17365;SDS011;8800;50.118;9.900;2023-07-13T05:46:56;5.75;;;1.50;;
17365;SDS011;8800;50.118;9.900;2023-07-13T05:49:22;3.95;;;1.10;;
17365;SDS011;8800;50.118;9.900;2023-07-13T05:51:49;1.83;;;0.80;;
17365;SDS011;8800;50.118;9.900;2023-07-13T05:54:16;3.13;;;1.08;;
17365;SDS011;8800;50.118;9.900;2023-07-13T05:56:44;6.90;;;1.40;;
17365;SDS011;8800;50.118;9.900;2023-07-13T05:59:10;2.75;;;0.80;;
17365;SDS011;8800;50.118;9.900;2023-07-13T06:01:36;4.25;;;1.00;;
17365;SDS011;8800;50.118;9.900;2023-07-13T06:04:03;8.57;;;1.40;;
17365;SDS011;8800;50.118;9.900;2023-07-13T06:06:30;3.15;;;1.00;;
17365;SDS011;8800;50.118;9.900;2023-07-13T06:08:56;2.80;;;1.20;;
17365;SDS011;8800;50.118;9.900;2023-07-13T06:11:23;2.55;;;1.08;;
17365;SDS011;8800;50.118;9.900;2023-07-13T06:13:51;5.55;;;1.00;;
17365;SDS011;8800;50.118;9.900;2023-07-13T06:16:18;1.77;;;0.70;;
17365;SDS011;8800;50.118;9.900;2023-07-13T06:18:45;2.53;;;1.00;;
17365;SDS011;8800;50.118;9.900;2023-07-13T06:21:12;3.05;;;1.05;;
17365;SDS011;8800;50.118;9.900;2023-07-13T06:23:39;4.28;;;0.90;;
17365;SDS011;8800;50.118;9.900;2023-07-13T06:26:06;3.55;;;1.15;;
17365;SDS011;8800;50.118;9.900;2023-07-13T06:28:34;4.72;;;1.00;;
17365;SDS011;8800;50.118;9.900;2023-07-13T06:31:04;6.65;;;0.98;;
17365;SDS011;8800;50.118;9.900;2023-07-13T06:33:31;2.78;;;0.70;;
17365;SDS011;8800;50.118;9.900;2023-07-13T06:35:58;5.22;;;0.80;;
17365;SDS011;8800;50.118;9.900;2023-07-13T06:38:24;3.72;;;0.80;;
17365;SDS011;8800;50.118;9.900;2023-07-13T06:40:51;2.08;;;0.80;;
17365;SDS011;8800;50.118;9.900;2023-07-13T06:43:17;1.90;;;0.52;;
17365;SDS011;8800;50.118;9.900;2023-07-13T06:45:46;3.42;;;0.63;;
17365;SDS011;8800;50.118;9.900;2023-07-13T06:48:16;2.05;;;0.60;;
17365;SDS011;8800;50.118;9.900;2023-07-13T06:50:43;3.65;;;0.95;;
17365;SDS011;8800;50.118;9.900;2023-07-13T06:53:10;3.47;;;0.75;;
17365;SDS011;8800;50.118;9.900;2023-07-13T06:55:37;4.32;;;0.77;;
17365;SDS011;8800;50.118;9.900;2023-07-13T06:58:03;5.50;;;0.80;;
17365;SDS011;8800;50.118;9.900;2023-07-13T07:00:30;2.38;;;0.50;;
17365;SDS011;8800;50.118;9.900;2023-07-13T07:02:56;2.70;;;0.75;;
17365;SDS011;8800;50.118;9.900;2023-07-13T07:05:24;2.47;;;0.70;;
17365;SDS011;8800;50.118;9.900;2023-07-13T07:07:50;2.53;;;0.70;;
17365;SDS011;8800;50.118;9.900;2023-07-13T07:10:17;2.30;;;0.63;;
17365;SDS011;8800;50.118;9.900;2023-07-13T07:12:43;1.80;;;0.60;;
17365;SDS011;8800;50.118;9.900;2023-07-13T07:15:10;1.63;;;0.50;;
17365;SDS011;8800;50.118;9.900;2023-07-13T07:17:36;2.72;;;0.60;;
17365;SDS011;8800;50.118;9.900;2023-07-13T07:20:03;4.10;;;0.88;;
17365;SDS011;8800;50.118;9.900;2023-07-13T07:22:31;2.60;;;0.82;;
17365;SDS011;8800;50.118;9.900;2023-07-13T07:24:57;2.88;;;0.50;;
17365;SDS011;8800;50.118;9.900;2023-07-13T07:27:24;2.55;;;0.70;;
17365;SDS011;8800;50.118;9.900;2023-07-13T07:29:50;2.05;;;0.68;;
17365;SDS011;8800;50.118;9.900;2023-07-13T07:32:18;1.48;;;0.73;;
17365;SDS011;8800;50.118;9.900;2023-07-13T07:34:44;1.75;;;0.60;;
17365;SDS011;8800;50.118;9.900;2023-07-13T07:37:11;4.85;;;0.80;;
17365;SDS011;8800;50.118;9.900;2023-07-13T07:39:39;3.20;;;0.75;;
17365;SDS011;8800;50.118;9.900;2023-07-13T07:42:06;2.28;;;0.63;;
17365;SDS011;8800;50.118;9.900;2023-07-13T07:44:32;3.55;;;0.55;;
17365;SDS011;8800;50.118;9.900;2023-07-13T07:46:59;3.33;;;0.90;;
17365;SDS011;8800;50.118;9.900;2023-07-13T07:49:25;1.38;;;0.70;;
17365;SDS011;8800;50.118;9.900;2023-07-13T07:51:52;3.00;;;0.63;;
17365;SDS011;8800;50.118;9.900;2023-07-13T07:54:18;3.50;;;0.60;;
17365;SDS011;8800;50.118;9.900;2023-07-13T07:56:46;5.72;;;0.90;;
17365;SDS011;8800;50.118;9.900;2023-07-13T07:59:13;3.70;;;0.70;;
17365;SDS011;8800;50.118;9.900;2023-07-13T08:01:39;2.25;;;0.80;;
17365;SDS011;8800;50.118;9.900;2023-07-13T08:04:05;0.90;;;0.70;;
17365;SDS011;8800;50.118;9.900;2023-07-13T08:06:32;3.95;;;0.88;;
17365;SDS011;8800;50.118;9.900;2023-07-13T08:08:58;7.85;;;0.90;;
17365;SDS011;8800;50.118;9.900;2023-07-13T08:11:25;3.60;;;0.82;;
17365;SDS011;8800;50.118;9.900;2023-07-13T08:13:53;2.45;;;0.75;;
17365;SDS011;8800;50.118;9.900;2023-07-13T08:16:19;2.22;;;0.90;;
17365;SDS011;8800;50.118;9.900;2023-07-13T08:18:45;2.72;;;0.80;;
17365;SDS011;8800;50.118;9.900;2023-07-13T08:21:12;3.67;;;1.00;;
17365;SDS011;8800;50.118;9.900;2023-07-13T08:23:38;6.88;;;1.13;;
17365;SDS011;8800;50.118;9.900;2023-07-13T08:26:04;3.38;;;0.80;;
17365;SDS011;8800;50.118;9.900;2023-07-13T08:28:31;4.78;;;0.77;;
17365;SDS011;8800;50.118;9.900;2023-07-13T08:31:01;3.60;;;0.63;;
17365;SDS011;8800;50.118;9.900;2023-07-13T08:33:28;2.25;;;0.70;;
17365;SDS011;8800;50.118;9.900;2023-07-13T08:35:54;2.10;;;0.75;;
17365;SDS011;8800;50.118;9.900;2023-07-13T08:38:20;1.63;;;0.80;;
17365;SDS011;8800;50.118;9.900;2023-07-13T08:40:53;2.20;;;0.73;;
17365;SDS011;8800;50.118;9.900;2023-07-13T08:43:20;1.58;;;0.57;;
17365;SDS011;8800;50.118;9.900;2023-07-13T08:45:49;2.55;;;0.80;;
17365;SDS011;8800;50.118;9.900;2023-07-13T08:48:20;3.97;;;0.80;;
17365;SDS011;8800;50.118;9.900;2023-07-13T08:50:48;3.70;;;0.90;;
17365;SDS011;8800;50.118;9.900;2023-07-13T08:53:15;2.33;;;0.77;;
17365;SDS011;8800;50.118;9.900;2023-07-13T08:55:42;1.08;;;0.50;;
17365;SDS011;8800;50.118;9.900;2023-07-13T08:58:10;6.95;;;0.70;;
17365;SDS011;8800;50.118;9.900;2023-07-13T09:00:39;1.77;;;0.70;;
17365;SDS011;8800;50.118;9.900;2023-07-13T09:03:07;2.60;;;0.70;;
17365;SDS011;8800;50.118;9.900;2023-07-13T09:05:40;2.40;;;1.05;;
17365;SDS011;8800;50.118;9.900;2023-07-13T09:08:12;1.55;;;0.90;;
17365;SDS011;8800;50.118;9.900;2023-07-13T09:10:44;3.22;;;0.82;;
17365;SDS011;8800;50.118;9.900;2023-07-13T09:13:16;2.22;;;0.70;;
17365;SDS011;8800;50.118;9.900;2023-07-13T09:15:46;3.47;;;0.50;;
17365;SDS011;8800;50.118;9.900;2023-07-13T09:18:15;1.92;;;0.60;;
17365;SDS011;8800;50.118;9.900;2023-07-13T09:20:44;3.42;;;0.80;;
17365;SDS011;8800;50.118;9.900;2023-07-13T09:23:13;5.18;;;0.90;;
17365;SDS011;8800;50.118;9.900;2023-07-13T09:25:40;2.67;;;0.80;;
17365;SDS011;8800;50.118;9.900;2023-07-13T09:28:10;3.83;;;0.77;;
17365;SDS011;8800;50.118;9.900;2023-07-13T09:30:38;1.80;;;0.70;;
17365;SDS011;8800;50.118;9.900;2023-07-13T09:33:06;4.30;;;0.73;;
17365;SDS011;8800;50.118;9.900;2023-07-13T09:35:34;3.55;;;1.02;;
17365;SDS011;8800;50.118;9.900;2023-07-13T09:38:04;1.63;;;0.90;;
17365;SDS011;8800;50.118;9.900;2023-07-13T09:40:38;3.92;;;0.93;;
17365;SDS011;8800;50.118;9.900;2023-07-13T09:43:07;2.55;;;0.88;;
17365;SDS011;8800;50.118;9.900;2023-07-13T09:45:36;4.60;;;1.05;;
17365;SDS011;8800;50.118;9.900;2023-07-13T09:48:06;2.92;;;0.93;;
17365;SDS011;8800;50.118;9.900;2023-07-13T09:50:33;2.47;;;1.20;;
17365;SDS011;8800;50.118;9.900;2023-07-13T09:53:00;3.03;;;0.90;;
17365;SDS011;8800;50.118;9.900;2023-07-13T09:55:30;5.25;;;1.10;;
17365;SDS011;8800;50.118;9.900;2023-07-13T09:57:57;2.28;;;0.88;;
17365;SDS011;8800;50.118;9.900;2023-07-13T10:00:25;2.08;;;1.10;;
17365;SDS011;8800;50.118;9.900;2023-07-13T10:02:57;4.53;;;1.00;;
17365;SDS011;8800;50.118;9.900;2023-07-13T10:05:24;3.13;;;1.02;;
17365;SDS011;8800;50.118;9.900;2023-07-13T10:07:50;2.10;;;0.85;;
17365;SDS011;8800;50.118;9.900;2023-07-13T10:10:18;4.25;;;0.90;;
17365;SDS011;8800;50.118;9.900;2023-07-13T10:12:47;1.88;;;0.70;;
17365;SDS011;8800;50.118;9.900;2023-07-13T10:15:15;2.42;;;0.70;;
17365;SDS011;8800;50.118;9.900;2023-07-13T10:17:42;3.53;;;1.10;;
17365;SDS011;8800;50.118;9.900;2023-07-13T10:20:09;4.28;;;1.00;;
17365;SDS011;8800;50.118;9.900;2023-07-13T10:22:39;2.88;;;0.80;;
17365;SDS011;8800;50.118;9.900;2023-07-13T10:25:13;2.13;;;1.08;;
17365;SDS011;8800;50.118;9.900;2023-07-13T10:27:41;4.18;;;1.02;;
17365;SDS011;8800;50.118;9.900;2023-07-13T10:30:11;2.30;;;0.90;;
17365;SDS011;8800;50.118;9.900;2023-07-13T10:32:38;1.80;;;0.90;;
17365;SDS011;8800;50.118;9.900;2023-07-13T10:35:05;3.03;;;0.80;;
17365;SDS011;8800;50.118;9.900;2023-07-13T10:37:36;3.42;;;0.82;;
17365;SDS011;8800;50.118;9.900;2023-07-13T10:40:05;3.15;;;0.82;;
17365;SDS011;8800;50.118;9.900;2023-07-13T10:42:33;5.53;;;0.80;;
17365;SDS011;8800;50.118;9.900;2023-07-13T10:45:01;2.70;;;1.23;;
17365;SDS011;8800;50.118;9.900;2023-07-13T10:47:29;3.30;;;0.95;;
17365;SDS011;8800;50.118;9.900;2023-07-13T10:49:57;7.45;;;1.00;;
17365;SDS011;8800;50.118;9.900;2023-07-13T10:52:42;3.22;;;1.00;;
17365;SDS011;8800;50.118;9.900;2023-07-13T10:55:30;4.38;;;0.90;;
17365;SDS011;8800;50.118;9.900;2023-07-13T10:57:59;2.63;;;0.70;;
17365;SDS011;8800;50.118;9.900;2023-07-13T11:00:26;3.08;;;0.93;;
17365;SDS011;8800;50.118;9.900;2023-07-13T11:02:57;3.47;;;1.08;;
17365;SDS011;8800;50.118;9.900;2023-07-13T11:05:26;1.55;;;0.80;;
17365;SDS011;8800;50.118;9.900;2023-07-13T11:07:55;1.55;;;0.93;;
17365;SDS011;8800;50.118;9.900;2023-07-13T11:13:03;2.63;;;0.90;;
17365;SDS011;8800;50.118;9.900;2023-07-13T11:15:32;3.80;;;0.90;;
17365;SDS011;8800;50.118;9.900;2023-07-13T11:18:03;3.35;;;0.98;;
17365;SDS011;8800;50.118;9.900;2023-07-13T11:20:31;2.42;;;0.82;;
17365;SDS011;8800;50.118;9.900;2023-07-13T11:23:16;1.75;;;0.70;;
17365;SDS011;8800;50.118;9.900;2023-07-13T11:25:44;4.15;;;1.00;;
17365;SDS011;8800;50.118;9.900;2023-07-13T11:28:17;3.67;;;1.08;;
17365;SDS011;8800;50.118;9.900;2023-07-13T11:30:46;3.50;;;0.90;;
17365;SDS011;8800;50.118;9.900;2023-07-13T11:33:16;2.65;;;0.93;;
17365;SDS011;8800;50.118;9.900;2023-07-13T11:35:53;4.65;;;1.20;;
17365;SDS011;8800;50.118;9.900;2023-07-13T11:38:24;2.63;;;0.90;;
17365;SDS011;8800;50.118;9.900;2023-07-13T11:40:54;3.40;;;1.05;;
17365;SDS011;8800;50.118;9.900;2023-07-13T11:43:23;3.00;;;0.80;;
17365;SDS011;8800;50.118;9.900;2023-07-13T11:45:50;7.05;;;0.90;;
17365;SDS011;8800;50.118;9.900;2023-07-13T11:48:22;2.70;;;0.80;;
17365;SDS011;8800;50.118;9.900;2023-07-13T11:50:50;4.25;;;1.00;;
17365;SDS011;8800;50.118;9.900;2023-07-13T11:53:17;2.05;;;0.80;;
17365;SDS011;8800;50.118;9.900;2023-07-13T11:55:44;3.47;;;1.00;;
17365;SDS011;8800;50.118;9.900;2023-07-13T11:58:14;2.58;;;0.95;;
17365;SDS011;8800;50.118;9.900;2023-07-13T12:00:42;2.40;;;0.80;;
17365;SDS011;8800;50.118;9.900;2023-07-13T12:03:10;6.05;;;0.80;;
17365;SDS011;8800;50.118;9.900;2023-07-13T12:05:39;3.78;;;0.88;;
17365;SDS011;8800;50.118;9.900;2023-07-13T12:08:21;3.78;;;0.90;;
17365;SDS011;8800;50.118;9.900;2023-07-13T12:10:48;4.28;;;1.00;;
17365;SDS011;8800;50.118;9.900;2023-07-13T12:13:14;3.53;;;0.80;;
17365;SDS011;8800;50.118;9.900;2023-07-13T12:15:42;2.95;;;0.60;;
17365;SDS011;8800;50.118;9.900;2023-07-13T12:18:12;1.48;;;0.88;;
17365;SDS011;8800;50.118;9.900;2023-07-13T12:20:41;2.78;;;0.80;;
17365;SDS011;8800;50.118;9.900;2023-07-13T12:23:10;4.55;;;0.93;;
17365;SDS011;8800;50.118;9.900;2023-07-13T12:25:42;2.35;;;0.93;;
17365;SDS011;8800;50.118;9.900;2023-07-13T12:28:19;2.38;;;0.82;;
17365;SDS011;8800;50.118;9.900;2023-07-13T12:30:47;3.15;;;0.80;;
17365;SDS011;8800;50.118;9.900;2023-07-13T12:33:14;1.65;;;0.90;;
17365;SDS011;8800;50.118;9.900;2023-07-13T12:35:47;3.03;;;0.70;;
17365;SDS011;8800;50.118;9.900;2023-07-13T12:38:17;3.40;;;0.82;;
17365;SDS011;8800;50.118;9.900;2023-07-13T12:40:48;2.35;;;0.93;;
17365;SDS011;8800;50.118;9.900;2023-07-13T12:43:15;2.45;;;0.88;;
17365;SDS011;8800;50.118;9.900;2023-07-13T12:45:54;2.60;;;0.80;;
17365;SDS011;8800;50.118;9.900;2023-07-13T12:48:21;3.55;;;0.93;;
17365;SDS011;8800;50.118;9.900;2023-07-13T12:50:49;3.22;;;0.80;;
17365;SDS011;8800;50.118;9.900;2023-07-13T12:53:17;3.80;;;0.90;;
17365;SDS011;8800;50.118;9.900;2023-07-13T12:55:47;5.50;;;1.00;;
17365;SDS011;8800;50.118;9.900;2023-07-13T12:58:17;2.35;;;0.75;;
17365;SDS011;8800;50.118;9.900;2023-07-13T13:00:48;2.38;;;0.98;;
17365;SDS011;8800;50.118;9.900;2023-07-13T13:03:20;2.35;;;0.90;;
17365;SDS011;8800;50.118;9.900;2023-07-13T13:05:49;2.33;;;0.70;;
17365;SDS011;8800;50.118;9.900;2023-07-13T13:08:16;3.45;;;0.95;;
17365;SDS011;8800;50.118;9.900;2023-07-13T13:10:42;2.13;;;0.70;;
17365;SDS011;8800;50.118;9.900;2023-07-13T13:13:10;2.88;;;0.90;;
17365;SDS011;8800;50.118;9.900;2023-07-13T13:15:37;2.70;;;0.90;;
17365;SDS011;8800;50.118;9.900;2023-07-13T13:18:04;1.73;;;0.80;;
17365;SDS011;8800;50.118;9.900;2023-07-13T13:20:35;4.28;;;1.02;;
17365;SDS011;8800;50.118;9.900;2023-07-13T13:23:04;4.10;;;0.85;;
17365;SDS011;8800;50.118;9.900;2023-07-13T13:25:30;2.22;;;0.80;;
17365;SDS011;8800;50.118;9.900;2023-07-13T13:27:58;2.28;;;0.90;;
17365;SDS011;8800;50.118;9.900;2023-07-13T13:30:24;2.97;;;0.98;;
17365;SDS011;8800;50.118;9.900;2023-07-13T13:32:51;2.53;;;0.80;;
17365;SDS011;8800;50.118;9.900;2023-07-13T13:35:18;4.40;;;0.80;;
17365;SDS011;8800;50.118;9.900;2023-07-13T13:37:45;2.35;;;0.80;;
17365;SDS011;8800;50.118;9.900;2023-07-13T13:40:17;2.30;;;0.95;;
17365;SDS011;8800;50.118;9.900;2023-07-13T13:42:45;5.90;;;0.90;;
17365;SDS011;8800;50.118;9.900;2023-07-13T13:45:11;2.08;;;0.75;;
17365;SDS011;8800;50.118;9.900;2023-07-13T13:47:38;1.35;;;0.80;;
17365;SDS011;8800;50.118;9.900;2023-07-13T13:50:12;4.07;;;1.10;;
17365;SDS011;8800;50.118;9.900;2023-07-13T13:52:40;1.88;;;0.90;;
17365;SDS011;8800;50.118;9.900;2023-07-13T13:55:11;1.80;;;1.02;;
17365;SDS011;8800;50.118;9.900;2023-07-13T13:57:39;2.13;;;0.93;;
17365;SDS011;8800;50.118;9.900;2023-07-13T14:00:07;2.15;;;1.00;;
17365;SDS011;8800;50.118;9.900;2023-07-13T14:02:34;2.03;;;0.73;;
17365;SDS011;8800;50.118;9.900;2023-07-13T14:05:01;2.55;;;1.00;;
17365;SDS011;8800;50.118;9.900;2023-07-13T14:07:28;1.48;;;0.85;;
17365;SDS011;8800;50.118;9.900;2023-07-13T14:09:56;1.67;;;0.82;;
17365;SDS011;8800;50.118;9.900;2023-07-13T14:12:23;3.33;;;0.90;;
17365;SDS011;8800;50.118;9.900;2023-07-13T14:14:55;2.72;;;1.20;;
17365;SDS011;8800;50.118;9.900;2023-07-13T14:17:23;4.85;;;1.02;;
17365;SDS011;8800;50.118;9.900;2023-07-13T14:19:51;4.45;;;1.10;;
17365;SDS011;8800;50.118;9.900;2023-07-13T14:22:22;1.50;;;0.85;;
17365;SDS011;8800;50.118;9.900;2023-07-13T14:24:49;2.78;;;1.00;;
17365;SDS011;8800;50.118;9.900;2023-07-13T14:27:15;2.30;;;0.90;;
17365;SDS011;8800;50.118;9.900;2023-07-13T14:29:42;1.85;;;1.02;;
17365;SDS011;8800;50.118;9.900;2023-07-13T14:32:11;1.88;;;1.00;;
17365;SDS011;8800;50.118;9.900;2023-07-13T14:34:38;3.65;;;0.90;;
17365;SDS011;8800;50.118;9.900;2023-07-13T14:37:04;2.97;;;1.10;;
17365;SDS011;8800;50.118;9.900;2023-07-13T14:39:31;3.53;;;0.90;;
17365;SDS011;8800;50.118;9.900;2023-07-13T14:41:58;3.08;;;1.00;;
17365;SDS011;8800;50.118;9.900;2023-07-13T14:44:25;3.53;;;1.00;;
17365;SDS011;8800;50.118;9.900;2023-07-13T14:46:54;2.00;;;0.98;;
17365;SDS011;8800;50.118;9.900;2023-07-13T14:49:24;1.50;;;0.80;;
17365;SDS011;8800;50.118;9.900;2023-07-13T14:51:50;2.03;;;0.90;;
17365;SDS011;8800;50.118;9.900;2023-07-13T14:54:17;4.03;;;1.02;;
17365;SDS011;8800;50.118;9.900;2023-07-13T14:56:50;3.50;;;1.13;;
17365;SDS011;8800;50.118;9.900;2023-07-13T14:59:17;3.28;;;1.27;;
17365;SDS011;8800;50.118;9.900;2023-07-13T15:01:44;3.22;;;1.00;;
17365;SDS011;8800;50.118;9.900;2023-07-13T15:04:11;1.58;;;0.85;;
17365;SDS011;8800;50.118;9.900;2023-07-13T15:06:56;2.80;;;1.13;;